Time;durP1;ratioP1;P1;durP2;ratioP2;P2;SDS_P1;SDS_P2;PMS_P1;PMS_P2;Temp;Humidity;BMP_temperature;BMP_pressure;BME280_temperature;BME280_humidity;BME280_pressure;Samples;Min_cycle;Max_cycle;Signal;HPM_P1;HPM_P2
2021/06/28 00:00:15;;;;;;;3.47;3.17;;;;;;;22.26;100.00;97370.34;5030800;28;20292;-61
2021/06/28 00:02:41;;;;;;;3.60;3.30;;;;;;;22.26;100.00;97366.94;5049952;28;20692;-64
2021/06/28 00:05:09;;;;;;;3.30;3.10;;;;;;;22.25;100.00;97368.63;5046963;28;20247;-65
2021/06/28 00:07:36;;;;;;;3.13;2.93;;;;;;;22.26;100.00;97370.34;5049566;28;20749;-62
2021/06/28 00:10:05;;;;;;;2.93;2.73;;;;;;;21.11;100.00;97168.78;5031796;28;20233;-63
2021/06/28 00:12:32;;;;;;;3.20;2.90;;;;;;;22.25;100.00;97378.84;5050524;28;20670;-65
2021/06/28 00:14:59;;;;;;;4.20;3.17;;;;;;;22.26;100.00;97377.16;5050419;28;20259;-65
2021/06/28 00:17:25;;;;;;;3.20;3.00;;;;;;;22.26;100.00;97374.59;5049608;28;20635;-63
2021/06/28 00:19:52;;;;;;;3.50;3.10;;;;;;;22.26;100.00;97370.34;5049364;28;20250;-65
2021/06/28 00:22:19;;;;;;;3.10;2.90;;;;;;;22.26;100.00;97367.78;5049333;28;20327;-63
2021/06/28 00:24:45;;;;;;;3.30;3.10;;;;;;;22.26;100.00;97369.50;5049335;28;20320;-64
2021/06/28 00:27:12;;;;;;;3.03;2.83;;;;;;;22.26;100.00;97372.88;5052087;28;20274;-64
2021/06/28 00:29:38;;;;;;;2.90;2.70;;;;;;;22.25;100.00;97373.72;5049706;28;20229;-64
2021/06/28 00:32:05;;;;;;;3.70;3.40;;;;;;;22.25;100.00;97373.72;5047710;28;20224;-65
2021/06/28 00:34:32;;;;;;;3.00;2.80;;;;;;;22.25;100.00;97380.53;5015079;28;20574;-64
2021/06/28 00:36:58;;;;;;;3.07;2.77;;;;;;;22.24;100.00;97377.13;5051364;28;20224;-64
2021/06/28 00:39:25;;;;;;;3.20;3.00;;;;;;;22.24;100.00;97382.25;5048919;28;20193;-63
2021/06/28 00:41:51;;;;;;;3.10;2.90;;;;;;;22.24;100.00;97383.94;5051951;28;20987;-65
2021/06/28 00:44:18;;;;;;;3.70;3.40;;;;;;;22.24;100.00;97373.69;5049114;28;20312;-65
2021/06/28 00:46:45;;;;;;;3.47;3.20;;;;;;;22.24;100.00;97371.13;5049858;28;20221;-64
2021/06/28 00:49:11;;;;;;;3.20;3.00;;;;;;;22.23;100.00;97371.97;5049304;28;20666;-64
2021/06/28 00:51:38;;;;;;;3.30;3.10;;;;;;;22.02;100.00;97339.03;5048992;28;20739;-64
2021/06/28 00:54:04;;;;;;;3.20;3.00;;;;;;;22.24;100.00;97377.13;5028094;28;20632;-65
2021/06/28 00:56:31;;;;;;;3.53;3.17;;;;;;;22.23;100.00;97370.25;5031663;28;20220;-63
2021/06/28 00:58:58;;;;;;;3.10;2.90;;;;;;;22.23;100.00;97367.69;5047420;28;20197;-64
2021/06/28 01:01:24;;;;;;;3.23;2.93;;;;;;;22.24;100.00;97372.00;5011520;28;20705;-65
2021/06/28 01:03:51;;;;;;;3.03;2.83;;;;;;;22.24;100.00;97376.25;5048940;28;20220;-65
2021/06/28 01:06:17;;;;;;;3.07;2.87;;;;;;;22.23;100.00;97375.38;5051695;28;20252;-64
2021/06/28 01:08:44;;;;;;;3.17;2.97;;;;;;;22.24;100.00;97378.81;5052168;28;20327;-64
2021/06/28 01:11:11;;;;;;;4.40;2.90;;;;;;;22.24;100.00;97378.81;5035893;28;20201;-64
2021/06/28 01:13:40;;;;;;;3.47;3.20;;;;;;;22.23;100.00;97375.38;5055494;28;20197;-64
2021/06/28 01:16:07;;;;;;;3.40;3.20;;;;;;;22.23;100.00;97370.25;5052310;28;20598;-65
2021/06/28 01:18:33;;;;;;;3.20;3.00;;;;;;;22.21;100.00;97356.56;5053085;28;20286;-65
2021/06/28 01:21:01;;;;;;;3.20;3.00;;;;;;;22.21;100.00;97369.38;5034949;28;20624;-62
2021/06/28 01:23:32;;;;;;;3.67;3.23;;;;;;;22.22;100.00;97375.34;5052253;28;20619;-64
2021/06/28 01:26:01;;;;;;;2.97;2.77;;;;;;;22.20;100.00;97372.75;5094402;22;20332;-70
2021/06/28 01:28:28;;;;;;;4.10;3.00;;;;;;;22.02;100.00;97338.19;5008351;28;20210;-68
2021/06/28 01:30:57;;;;;;;3.50;3.20;;;;;;;21.87;100.00;97312.22;5007401;28;20194;-69
2021/06/28 01:33:23;;;;;;;3.10;2.90;;;;;;;22.12;100.00;97353.81;5016808;28;20225;-70
2021/06/28 01:35:50;;;;;;;3.00;2.80;;;;;;;22.22;100.00;97362.53;5025687;28;20229;-68
2021/06/28 01:38:17;;;;;;;3.53;3.27;;;;;;;22.12;100.00;97346.13;5002528;28;20288;-68
2021/06/28 01:40:43;;;;;;;2.90;2.70;;;;;;;22.21;100.00;97355.69;5008008;28;20201;-69
2021/06/28 01:43:10;;;;;;;2.93;2.73;;;;;;;22.12;100.00;97337.56;5020694;28;20236;-69
2021/06/28 01:45:37;;;;;;;3.03;2.83;;;;;;;22.22;100.00;97354.84;5026115;28;20312;-68
2021/06/28 01:48:04;;;;;;;3.50;2.90;;;;;;;22.12;100.00;97343.56;5018965;28;20202;-69
2021/06/28 01:50:32;;;;;;;3.17;2.97;;;;;;;21.86;100.00;97298.56;5018909;28;20566;-67
2021/06/28 01:52:58;;;;;;;3.37;3.07;;;;;;;22.11;100.00;97346.94;5025372;28;20233;-68
2021/06/28 01:55:25;;;;;;;3.27;3.07;;;;;;;22.14;100.00;97364.91;5017265;28;20670;-68
2021/06/28 01:57:56;;;;;;;3.37;3.17;;;;;;;22.20;100.00;97377.88;5022226;28;20202;-65
2021/06/28 02:00:32;;;;;;;3.10;2.90;;;;;;;22.11;100.00;97371.69;5024004;28;20206;-68
2021/06/28 02:03:07;;;;;;;3.13;2.93;;;;;;;22.09;100.00;97370.75;5015864;28;20303;-68
2021/06/28 02:05:36;;;;;;;3.40;3.20;;;;;;;22.19;100.00;97380.38;5005818;28;20274;-66
2021/06/28 02:08:04;;;;;;;2.90;2.70;;;;;;;;;;5002001;28;20198;-66
2021/06/28 02:10:30;;;;;;;3.10;2.90;;;;;;;22.10;100.00;97370.81;5017594;28;20229;-68
2021/06/28 02:12:57;;;;;;;3.10;2.90;;;;;;;22.05;100.00;97358.72;5020931;28;20225;-69
2021/06/28 02:15:25;;;;;;;2.97;2.77;;;;;;;22.15;100.00;97378.59;5017639;28;20222;-68
2021/06/28 02:17:52;;;;;;;3.40;3.20;;;;;;;22.19;100.00;97386.38;5020919;28;20229;-67
2021/06/28 02:20:19;;;;;;;3.20;3.00;;;;;;;22.10;100.00;97359.69;5021548;28;20288;-74
2021/06/28 02:22:47;;;;;;;3.10;2.90;;;;;;;22.11;100.00;97361.44;5022093;28;20221;-72
2021/06/28 02:25:14;;;;;;;3.17;2.97;;;;;;;22.19;100.00;97381.25;4989063;28;20254;-68
2021/06/28 02:27:41;;;;;;;3.63;3.33;;;;;;;22.19;100.00;97383.81;5018906;28;20258;-68
2021/06/28 02:30:12;;;;;;;3.87;3.30;;;;;;;22.20;100.00;97385.53;5020409;28;20293;-68
2021/06/28 02:32:40;;;;;;;3.07;2.87;;;;;;;22.17;100.00;97382.06;5019251;28;20293;-70
2021/06/28 02:35:08;;;;;;;3.40;3.10;;;;;;;22.20;100.00;97385.53;5004304;28;20280;-72
2021/06/28 02:37:35;;;;;;;3.47;3.27;;;;;;;22.09;100.00;97365.66;5019602;28;20236;-68
2021/06/28 02:40:03;;;;;;;3.10;2.90;;;;;;;22.19;100.00;97378.69;5021312;28;20245;-68
2021/06/28 02:42:30;;;;;;;3.23;2.93;;;;;;;22.18;100.00;97381.22;5023281;28;20724;-68
2021/06/28 02:44:56;;;;;;;3.20;2.90;;;;;;;22.10;100.00;97362.25;5013570;28;20246;-66
2021/06/28 02:47:23;;;;;;;3.77;3.40;;;;;;;22.08;100.00;97353.69;5006248;28;20646;-67
2021/06/28 02:49:49;;;;;;;3.43;3.23;;;;;;;22.18;100.00;97369.31;5009168;28;20666;-69
2021/06/28 02:52:16;;;;;;;3.30;3.10;;;;;;;22.17;100.00;97365.00;5018539;28;20229;-68
2021/06/28 02:54:42;;;;;;;2.93;2.73;;;;;;;22.18;100.00;97365.88;5014619;28;20246;-69
2021/06/28 02:57:09;;;;;;;2.93;2.73;;;;;;;22.17;100.00;97357.31;5023101;28;20290;-69
2021/06/28 02:59:36;;;;;;;3.17;2.97;;;;;;;22.15;100.00;97359.00;5022973;28;20276;-68
2021/06/28 03:02:02;;;;;;;3.27;3.07;;;;;;;22.04;100.00;97349.31;5017529;28;20232;-66
2021/06/28 03:04:29;;;;;;;3.37;3.07;;;;;;;22.19;100.00;97372.72;5000013;28;20226;-69
2021/06/28 03:06:56;;;;;;;3.50;3.20;;;;;;;22.19;100.00;97380.38;5017535;28;20254;-68
2021/06/28 03:09:23;;;;;;;3.40;3.20;;;;;;;22.08;100.00;97369.03;5004643;28;20252;-68
2021/06/28 03:11:50;;;;;;;3.33;3.03;;;;;;;22.16;100.00;97382.88;5007029;28;20682;-69
2021/06/28 03:14:17;;;;;;;3.10;2.80;;;;;;;22.20;100.00;97390.66;5019648;28;20633;-71
2021/06/28 03:16:43;;;;;;;3.83;3.17;;;;;;;22.16;100.00;97381.19;5017691;28;20631;-67
2021/06/28 03:19:10;;;;;;;3.80;3.50;;;;;;;22.20;100.00;97388.09;5024552;28;20194;-68
2021/06/28 03:21:36;;;;;;;3.57;3.30;;;;;;;22.20;100.00;97394.94;5017002;28;20198;-69
2021/06/28 03:24:03;;;;;;;3.40;3.20;;;;;;;22.15;100.00;97387.16;5022405;28;20742;-65
2021/06/28 03:26:30;;;;;;;3.20;3.00;;;;;;;22.21;100.00;97394.09;5003216;28;20308;-72
2021/06/28 03:28:56;;;;;;;3.60;3.30;;;;;;;22.21;100.00;97401.78;5017386;28;20210;-68
2021/06/28 03:31:23;;;;;;;3.50;3.27;;;;;;;22.13;100.00;97387.91;5022366;28;20733;-65
2021/06/28 03:33:50;;;;;;;3.57;3.27;;;;;;;22.17;100.00;97399.97;5018010;28;20661;-66
2021/06/28 03:36:16;;;;;;;3.50;3.20;;;;;;;22.22;100.00;97406.06;5011283;28;20571;-72
2021/06/28 03:38:43;;;;;;;3.50;3.20;;;;;;;22.12;100.00;97386.19;5015823;28;20198;-69
2021/06/28 03:41:10;;;;;;;3.43;3.23;;;;;;;22.20;100.00;97380.44;5016895;28;20718;-68
2021/06/28 03:43:36;;;;;;;3.13;2.93;;;;;;;22.20;100.00;97377.88;5015922;28;20300;-71
2021/06/28 03:46:03;;;;;;;3.30;3.10;;;;;;;22.11;100.00;97364.84;5017628;28;20643;-69
2021/06/28 03:48:30;;;;;;;3.73;3.43;;;;;;;22.12;100.00;97360.59;5023264;28;20225;-67
2021/06/28 03:50:57;;;;;;;3.50;3.30;;;;;;;22.16;100.00;97368.38;5015940;28;20240;-68
2021/06/28 03:53:23;;;;;;;4.87;3.60;;;;;;;22.06;100.00;97360.44;5015200;28;20226;-69
2021/06/28 03:55:50;;;;;;;3.53;3.27;;;;;;;22.16;100.00;97400.78;5018284;28;20672;-68
2021/06/28 03:58:17;;;;;;;3.87;3.57;;;;;;;22.16;100.00;97395.66;5020925;28;20194;-68
2021/06/28 04:00:45;;;;;;;3.67;3.30;;;;;;;22.20;100.00;97410.31;5018587;28;20230;-67
2021/06/28 04:03:12;;;;;;;3.50;3.20;;;;;;;22.09;100.00;97392.13;5000336;28;20699;-72
2021/06/28 04:05:40;;;;;;;3.90;3.50;;;;;;;22.20;100.00;97415.41;5011222;28;20271;-71
2021/06/28 04:08:07;;;;;;;4.00;3.60;;;;;;;22.18;100.00;97405.13;5018368;28;20214;-64
2021/06/28 04:10:34;;;;;;;3.80;3.50;;;;;;;22.04;100.00;97383.44;5016568;28;20245;-68
2021/06/28 04:13:00;;;;;;;3.80;3.50;;;;;;;22.10;100.00;97396.41;5019709;28;20618;-70
2021/06/28 04:15:27;;;;;;;3.93;3.63;;;;;;;22.20;100.00;97415.41;5011810;28;20225;-66
2021/06/28 04:17:54;;;;;;;3.93;3.63;;;;;;;22.15;100.00;97407.63;5019436;28;20662;-70
2021/06/28 04:20:22;;;;;;;3.80;3.50;;;;;;;22.20;100.00;97420.53;5021833;28;20791;-68
2021/06/28 04:22:49;;;;;;;4.00;3.70;;;;;;;22.20;100.00;97415.41;5020946;28;20236;-70
2021/06/28 04:25:18;;;;;;;3.53;3.10;;;;;;;22.21;100.00;97428.25;5020680;28;20230;-68
2021/06/28 04:27:45;;;;;;;3.60;3.40;;;;;;;21.86;100.00;97365.06;5015945;28;20253;-71
2021/06/28 04:30:12;;;;;;;4.67;3.50;;;;;;;22.22;100.00;97419.75;5017344;28;20199;-67
2021/06/28 04:32:40;;;;;;;3.77;3.47;;;;;;;22.21;100.00;97417.13;5017051;28;20252;-70
2021/06/28 04:35:08;;;;;;;3.67;3.37;;;;;;;22.18;100.00;97411.94;5018574;28;21060;-68
2021/06/28 04:37:35;;;;;;;3.53;3.33;;;;;;;22.02;100.00;97384.25;5002284;28;20298;-70
2021/06/28 04:40:06;;;;;;;4.03;3.73;;;;;;;22.19;100.00;97419.66;5020183;28;20202;-68
2021/06/28 04:42:33;;;;;;;3.93;3.50;;;;;;;22.11;100.00;97405.78;5024025;28;20670;-68
2021/06/28 04:44:59;;;;;;;4.07;3.77;;;;;;;21.95;100.00;97379.78;5016360;28;20253;-66
2021/06/28 04:47:26;;;;;;;4.10;3.80;;;;;;;22.15;100.00;97412.75;5021894;28;20308;-68
2021/06/28 04:49:52;;;;;;;3.83;3.53;;;;;;;21.95;100.00;97380.66;5020130;28;20742;-69
2021/06/28 04:52:19;;;;;;;4.07;3.67;;;;;;;22.08;100.00;97399.75;5002794;28;20233;-68
2021/06/28 04:54:46;;;;;;;3.90;3.60;;;;;;;22.05;100.00;97389.44;5018032;28;20245;-69
2021/06/28 04:57:16;;;;;;;4.83;4.43;;;;;;;22.20;100.00;97418.81;5021537;28;20217;-68
2021/06/28 04:59:43;;;;;;;4.97;4.47;;;;;;;22.20;100.00;97416.25;5024751;28;20640;-68
2021/06/28 05:02:09;;;;;;;6.60;4.50;;;;;;;22.22;100.00;97411.19;5020231;28;20225;-69
2021/06/28 05:04:36;;;;;;;5.00;4.60;;;;;;;22.18;100.00;97404.25;5017182;28;20226;-68
2021/06/28 05:07:03;;;;;;;4.40;4.10;;;;;;;22.21;100.00;97402.66;5018337;28;20313;-69
2021/06/28 05:09:29;;;;;;;4.70;4.30;;;;;;;22.17;100.00;97395.72;5024338;28;20916;-68
2021/06/28 05:11:56;;;;;;;5.67;5.10;;;;;;;22.23;100.00;97398.41;5019577;28;20206;-68
2021/06/28 05:14:23;;;;;;;5.60;5.10;;;;;;;22.23;100.00;97397.56;5024262;28;20242;-69
2021/06/28 05:16:49;;;;;;;5.13;4.73;;;;;;;22.24;100.00;97396.72;5019479;28;20563;-69
2021/06/28 05:19:16;;;;;;;5.23;4.37;;;;;;;22.23;100.00;97385.63;5022887;28;20228;-66
2021/06/28 05:21:42;;;;;;;5.03;4.63;;;;;;;22.14;100.00;97370.03;5017498;28;20301;-70
2021/06/28 05:24:09;;;;;;;6.27;5.03;;;;;;;22.24;100.00;97389.94;5024914;28;20234;-69
2021/06/28 05:26:36;;;;;;;5.60;5.00;;;;;;;22.24;100.00;97384.81;5019438;28;20226;-69
2021/06/28 05:29:02;;;;;;;5.97;5.00;;;;;;;22.14;100.00;97367.47;5020508;28;20229;-67
2021/06/28 05:31:29;;;;;;;6.10;5.50;;;;;;;22.19;100.00;97378.69;5018993;28;20300;-72
2021/06/28 05:33:56;;;;;;;6.27;5.20;;;;;;;22.15;100.00;97369.22;5018267;28;20210;-67
2021/06/28 05:36:22;;;;;;;6.30;5.00;;;;;;;22.23;100.00;97388.19;5020300;28;20218;-69
2021/06/28 05:38:49;;;;;;;5.83;5.20;;;;;;;22.24;100.00;97396.72;5022233;28;20332;-67
2021/06/28 05:41:16;;;;;;;5.20;4.70;;;;;;;22.25;100.00;97393.34;5023063;28;20205;-72
2021/06/28 05:43:43;;;;;;;5.60;5.03;;;;;;;22.24;100.00;97394.16;5018204;28;20207;-67
2021/06/28 05:46:10;;;;;;;6.60;5.30;;;;;;;22.13;100.00;97377.69;5014406;28;20250;-66
2021/06/28 05:48:37;;;;;;;5.57;5.07;;;;;;;22.24;100.00;97402.72;5015031;28;20306;-68
2021/06/28 05:51:04;;;;;;;5.43;4.97;;;;;;;22.24;100.00;97401.84;5015708;28;20248;-67
2021/06/28 05:53:32;;;;;;;6.17;5.20;;;;;;;22.24;100.00;97395.06;5022231;28;20252;-70
2021/06/28 05:56:00;;;;;;;5.50;5.00;;;;;;;22.05;100.00;97356.16;5020602;28;20225;-69
2021/06/28 05:58:28;;;;;;;5.10;4.70;;;;;;;21.89;100.00;97328.44;5013898;28;20277;-71
2021/06/28 06:00:58;;;;;;;5.70;5.20;;;;;;;22.24;100.00;97394.16;5019294;28;20622;-68
2021/06/28 06:03:25;;;;;;;5.50;4.60;;;;;;;22.21;100.00;97394.97;5017297;28;20260;-71
2021/06/28 06:05:53;;;;;;;5.43;4.93;;;;;;;22.05;100.00;97361.28;5018708;28;20238;-67
2021/06/28 06:08:23;;;;;;;5.57;4.77;;;;;;;22.26;100.00;97405.31;5005548;28;20313;-71
2021/06/28 06:10:57;;;;;;;5.10;4.67;;;;;;;22.04;100.00;97375.78;5016803;28;20207;-69
2021/06/28 06:13:23;;;;;;;5.10;4.70;;;;;;;22.25;100.00;97399.34;5017203;28;20704;-70
2021/06/28 06:15:50;;;;;;;5.50;4.90;;;;;;;22.20;100.00;97390.66;5000552;28;20304;-65
2021/06/28 06:18:17;;;;;;;5.40;4.90;;;;;;;22.20;100.00;97388.09;5006179;28;20197;-71
2021/06/28 06:20:44;;;;;;;6.37;4.80;;;;;;;22.26;100.00;97400.22;5003676;28;20656;-71
2021/06/28 06:23:11;;;;;;;8.17;4.90;;;;;;;22.25;100.00;97409.56;5023754;28;20209;-65
2021/06/28 06:25:42;;;;;;;5.73;5.13;;;;;;;22.13;100.00;97387.91;5015164;28;20555;-69
2021/06/28 06:28:09;;;;;;;5.63;5.13;;;;;;;22.20;100.00;97411.13;5000237;28;20250;-68
2021/06/28 06:30:35;;;;;;;6.80;5.10;;;;;;;22.25;100.00;97411.25;5022976;28;20205;-69
2021/06/28 06:33:03;;;;;;;5.37;4.90;;;;;;;21.89;100.00;97351.47;5020153;28;20754;-68
2021/06/28 06:35:30;;;;;;;6.57;5.97;;;;;;;22.24;100.00;97423.22;5010588;28;20287;-68
2021/06/28 06:37:57;;;;;;;5.67;5.17;;;;;;;22.23;100.00;97406.09;5019427;28;20252;-68
2021/06/28 06:40:24;;;;;;;5.97;5.13;;;;;;;22.11;100.00;97385.31;5018634;28;20249;-66
2021/06/28 06:42:52;;;;;;;5.43;4.93;;;;;;;22.15;100.00;97384.59;5003780;28;20285;-67
2021/06/28 06:45:20;;;;;;;5.53;5.00;;;;;;;22.16;100.00;97383.75;5018146;28;20225;-68
2021/06/28 06:47:46;;;;;;;5.47;4.97;;;;;;;22.10;100.00;97386.16;5002943;28;20309;-69
2021/06/28 06:50:13;;;;;;;6.40;5.67;;;;;;;22.24;100.00;97415.53;5020062;28;20203;-68
2021/06/28 06:52:40;;;;;;;5.77;5.17;;;;;;;22.25;100.00;97401.00;5015125;28;20226;-69
2021/06/28 06:55:08;;;;;;;5.93;5.33;;;;;;;22.25;100.00;97413.81;5018756;28;20299;-70
2021/06/28 06:57:35;;;;;;;6.30;5.33;;;;;;;22.21;100.00;97405.22;5012512;28;20191;-69
2021/06/28 07:00:07;;;;;;;5.37;4.87;;;;;;;22.21;100.00;97401.78;5013948;28;20284;-68
2021/06/28 07:02:33;;;;;;;6.27;5.27;;;;;;;22.12;100.00;97391.31;5012933;28;20311;-66
2021/06/28 07:05:00;;;;;;;6.40;5.30;;;;;;;22.19;100.00;97408.53;5007764;28;20392;-66
2021/06/28 07:07:27;;;;;;;5.73;5.23;;;;;;;22.27;100.00;97412.16;5013118;28;20304;-66
2021/06/28 07:09:53;;;;;;;5.70;5.20;;;;;;;22.26;100.00;97413.84;5021050;28;20585;-68
2021/06/28 07:12:20;;;;;;;5.90;4.70;;;;;;;22.27;100.00;97417.28;5018989;28;20237;-68
2021/06/28 07:14:46;;;;;;;5.63;5.03;;;;;;;22.28;100.00;97419.88;5014610;28;20245;-68
2021/06/28 07:17:13;;;;;;;8.23;5.30;;;;;;;22.27;100.00;97419.84;5011842;28;20198;-71
2021/06/28 07:19:40;;;;;;;5.90;5.20;;;;;;;22.18;100.00;97404.25;5015599;28;20206;-68
2021/06/28 07:22:06;;;;;;;5.60;5.10;;;;;;;22.25;100.00;97421.50;5007778;28;20660;-66
2021/06/28 07:24:33;;;;;;;5.67;5.17;;;;;;;22.28;100.00;97424.13;5016635;28;20264;-67
2021/06/28 07:27:00;;;;;;;5.40;4.90;;;;;;;22.18;100.00;97406.81;5019765;28;20208;-71
2021/06/28 07:29:26;;;;;;;5.90;5.40;;;;;;;22.25;100.00;97417.25;5013128;28;20663;-69
2021/06/28 07:31:53;;;;;;;6.10;5.50;;;;;;;22.23;100.00;97425.72;5020638;28;20293;-67
2021/06/28 07:34:20;;;;;;;5.83;5.33;;;;;;;22.27;100.00;97428.41;5017694;28;20224;-67
2021/06/28 07:36:46;;;;;;;6.53;5.47;;;;;;;21.90;100.00;97356.63;5019343;28;20224;-68
2021/06/28 07:39:13;;;;;;;5.00;4.60;;;;;;;22.19;100.00;97408.53;5018633;28;20225;-68
2021/06/28 07:41:40;;;;;;;5.10;4.70;;;;;;;22.12;100.00;97396.44;5018956;28;20288;-68
2021/06/28 07:44:07;;;;;;;5.60;5.10;;;;;;;22.27;100.00;97425.84;5000018;28;20198;-68
2021/06/28 07:46:35;;;;;;;6.80;5.23;;;;;;;22.18;100.00;97406.81;5010498;28;20656;-68
2021/06/28 07:49:03;;;;;;;5.13;4.63;;;;;;;22.27;100.00;97422.41;5018311;28;20222;-68
2021/06/28 07:51:35;;;;;;;5.40;4.90;;;;;;;22.28;100.00;97416.44;5015478;28;20293;-71
2021/06/28 07:54:05;;;;;;;5.23;4.73;;;;;;;22.26;100.00;97424.09;5018255;28;20572;-66
2021/06/28 07:56:32;;;;;;;5.57;4.73;;;;;;;22.13;100.00;97393.03;5015869;28;20341;-68
2021/06/28 07:58:59;;;;;;;5.30;4.80;;;;;;;22.27;100.00;97420.72;5017847;28;20272;-71
2021/06/28 08:01:26;;;;;;;5.77;5.10;;;;;;;22.27;100.00;97417.28;5019393;28;20232;-70
2021/06/28 08:03:52;;;;;;;7.07;5.00;;;;;;;22.28;100.00;97413.88;5013177;28;20217;-68
2021/06/28 08:06:20;;;;;;;6.00;5.00;;;;;;;22.22;100.00;97408.63;5018251;28;20250;-67
2021/06/28 08:08:48;;;;;;;5.00;4.60;;;;;;;22.17;100.00;97395.72;5018433;28;20241;-70
2021/06/28 08:11:14;;;;;;;6.50;5.20;;;;;;;22.17;100.00;97394.88;5007559;28;20302;-69
2021/06/28 08:13:43;;;;;;;5.47;4.97;;;;;;;22.12;100.00;97381.94;5000473;28;20221;-69
2021/06/28 08:16:10;;;;;;;5.20;4.80;;;;;;;22.21;100.00;97392.41;5008343;28;20250;-69
2021/06/28 08:18:36;;;;;;;5.10;4.60;;;;;;;22.25;100.00;97399.34;5025340;28;20212;-69
2021/06/28 08:21:03;;;;;;;5.17;4.77;;;;;;;22.26;100.00;97397.66;5022716;28;20881;-70
2021/06/28 08:23:30;;;;;;;4.87;4.47;;;;;;;22.15;100.00;97376.03;5024147;28;20296;-69
2021/06/28 08:25:57;;;;;;;5.60;4.97;;;;;;;22.22;100.00;97393.25;5018718;28;20291;-68
2021/06/28 08:28:24;;;;;;;5.17;4.77;;;;;;;22.11;100.00;97369.97;5025594;28;20304;-66
2021/06/28 08:30:50;;;;;;;4.73;4.30;;;;;;;22.24;100.00;97392.50;5014914;28;20202;-67
2021/06/28 08:33:17;;;;;;;5.20;4.70;;;;;;;22.21;100.00;97386.41;5017327;28;20202;-68
2021/06/28 08:35:44;;;;;;;5.07;4.67;;;;;;;22.16;100.00;97373.50;5025685;28;20264;-68
2021/06/28 08:38:11;;;;;;;5.00;4.60;;;;;;;22.26;100.00;97395.09;5012092;28;20194;-65
2021/06/28 08:40:38;;;;;;;4.80;4.40;;;;;;;22.16;100.00;97380.31;5021065;28;20641;-67
2021/06/28 08:43:07;;;;;;;5.00;4.60;;;;;;;22.27;100.00;97391.69;5025407;28;20197;-68
2021/06/28 08:45:35;;;;;;;4.33;3.97;;;;;;;22.27;100.00;97386.56;5004588;28;20245;-69
2021/06/28 08:48:03;;;;;;;5.20;4.70;;;;;;;22.17;100.00;97371.81;5005592;28;20315;-68
2021/06/28 08:50:30;;;;;;;4.87;4.47;;;;;;;22.17;100.00;97364.16;5023169;28;20288;-69
2021/06/28 08:52:57;;;;;;;4.77;4.37;;;;;;;21.96;100.00;97325.25;4995100;28;20209;-68
2021/06/28 08:55:23;;;;;;;4.97;4.57;;;;;;;22.25;100.00;97372.84;5024069;28;20854;-67
2021/06/28 08:57:50;;;;;;;4.77;4.37;;;;;;;22.07;100.00;97344.25;5021372;28;20286;-65
2021/06/28 09:00:17;;;;;;;4.60;4.20;;;;;;;22.25;100.00;97377.97;5012738;28;20197;-68
2021/06/28 09:02:44;;;;;;;5.00;4.60;;;;;;;21.88;100.00;97314.81;5023404;28;20210;-69
2021/06/28 09:05:11;;;;;;;5.17;4.77;;;;;;;22.00;100.00;97334.72;5008922;28;20218;-64
2021/06/28 09:07:38;;;;;;;4.90;4.50;;;;;;;22.25;100.00;97377.97;5025691;28;20257;-71
2021/06/28 09:10:05;;;;;;;4.77;4.33;;;;;;;22.25;100.00;97388.22;5023498;28;20229;-69
2021/06/28 09:12:32;;;;;;;4.47;4.07;;;;;;;22.06;100.00;97360.44;5028185;28;20232;-68
2021/06/28 09:14:59;;;;;;;4.70;4.30;;;;;;;21.85;100.00;97314.75;5023904;28;20598;-69
2021/06/28 09:17:32;;;;;;;4.70;4.27;;;;;;;22.24;100.00;97378.81;5008194;28;20283;-67
2021/06/28 09:20:11;;;;;;;5.20;4.70;;;;;;;22.25;100.00;97393.34;5024475;28;20206;-69
2021/06/28 09:22:38;;;;;;;4.90;4.50;;;;;;;21.97;100.00;97334.63;5019124;28;20714;-69
2021/06/28 09:25:07;;;;;;;4.70;4.30;;;;;;;22.15;100.00;97368.34;5001512;28;20254;-69
2021/06/28 09:27:43;;;;;;;4.87;4.40;;;;;;;22.15;100.00;97363.22;4999022;28;20224;-71
2021/06/28 09:30:20;;;;;;;5.07;4.47;;;;;;;22.25;100.00;97375.41;5013947;28;20659;-68
2021/06/28 09:33:06;;;;;;;4.17;3.87;;;;;;;22.26;100.00;97377.16;5004304;28;20230;-66
2021/06/28 09:35:39;;;;;;;4.40;4.00;;;;;;;22.25;100.00;97373.72;5031130;22;20327;-67
2021/06/28 09:38:27;;;;;;;4.60;4.20;;;;;;;21.93;100.00;97317.50;5050401;28;20193;-67
2021/06/28 09:40:54;;;;;;;4.70;4.30;;;;;;;22.26;100.00;97370.34;5018347;28;20291;-68
2021/06/28 09:43:24;;;;;;;4.67;4.27;;;;;;;22.26;100.00;97365.22;5034400;28;21258;-65
2021/06/28 09:45:55;;;;;;;4.70;4.30;;;;;;;21.99;100.00;97320.19;5047649;28;20244;-63
2021/06/28 09:48:26;;;;;;;4.97;4.07;;;;;;;22.16;100.00;97352.16;5018261;28;20236;-66
2021/06/28 09:51:19;;;;;;;4.47;4.07;;;;;;;22.24;100.00;97366.88;5034776;28;20221;-66
2021/06/28 09:53:49;;;;;;;4.57;4.17;;;;;;;22.15;100.00;97359.00;5030466;28;20200;-67
2021/06/28 09:56:33;;;;;;;4.47;4.17;;;;;;;22.08;100.00;97340.88;5015909;28;20213;-66
2021/06/28 09:59:37;;;;;;;4.57;4.17;;;;;;;22.14;100.00;97351.28;5034108;28;20283;-67
2021/06/28 10:02:26;;;;;;;4.30;4.00;;;;;;;22.20;100.00;97353.97;5036928;28;20219;-67
2021/06/28 10:07:29;;;;;;;4.83;4.43;;;;;;;22.24;100.00;97359.22;5050917;28;20305;-70
2021/06/28 10:10:08;;;;;;;4.67;4.27;;;;;;;22.24;100.00;97364.34;5052244;28;20278;-71
2021/06/28 10:12:36;;;;;;;4.17;3.87;;;;;;;22.24;100.00;97355.78;5049438;28;20828;-69
2021/06/28 10:15:08;;;;;;;4.10;3.80;;;;;;;22.20;100.00;97351.41;5031599;28;20682;-69
2021/06/28 10:17:34;;;;;;;4.67;4.17;;;;;;;22.15;100.00;97337.63;5018076;28;20255;-68
2021/06/28 10:20:01;;;;;;;4.30;4.00;;;;;;;22.25;100.00;97352.38;5022142;28;20246;-68
2021/06/28 10:22:28;;;;;;;4.43;4.03;;;;;;;21.95;100.00;97301.34;5033176;28;20274;-67
2021/06/28 10:24:59;;;;;;;4.27;3.97;;;;;;;22.25;100.00;97350.69;5035761;28;20211;-68
2021/06/28 10:27:26;;;;;;;4.33;4.03;;;;;;;22.25;100.00;97350.69;5050406;28;20204;-69
2021/06/28 10:29:53;;;;;;;4.80;4.27;;;;;;;21.98;100.00;97301.41;5034201;28;20303;-68
2021/06/28 10:32:19;;;;;;;4.50;4.20;;;;;;;22.16;100.00;97329.13;5024163;28;20277;-71
2021/06/28 10:34:51;;;;;;;4.27;3.87;;;;;;;22.16;100.00;97329.13;5038552;28;20685;-68
2021/06/28 10:37:41;;;;;;;4.60;4.27;;;;;;;22.25;100.00;97348.13;5025620;28;20312;-69
2021/06/28 10:40:44;;;;;;;4.47;4.07;;;;;;;22.25;100.00;97337.00;5016035;28;20235;-71
2021/06/28 10:43:41;;;;;;;4.10;3.80;;;;;;;21.91;100.00;97278.19;4996502;28;20224;-65
2021/06/28 10:46:09;;;;;;;4.00;3.70;;;;;;;22.10;100.00;97321.28;5024616;28;20224;-69
2021/06/28 10:48:47;;;;;;;4.07;3.77;;;;;;;22.25;100.00;97337.00;5015703;28;20844;-69
2021/06/28 10:51:14;;;;;;;4.40;4.10;;;;;;;22.25;100.00;97331.91;5044726;28;20196;-68
2021/06/28 10:53:41;;;;;;;4.73;4.37;;;;;;;22.25;100.00;97327.66;5033036;28;20201;-67
2021/06/28 10:56:29;;;;;;;4.50;4.10;;;;;;;22.15;100.00;97306.94;5051505;28;20263;-67
2021/06/28 10:59:07;;;;;;;4.47;3.87;;;;;;;22.11;100.00;97300.84;5060202;28;20213;-70
2021/06/28 11:01:37;;;;;;;4.30;3.90;;;;;;;22.25;100.00;97325.09;5017812;28;20221;-68
2021/06/28 11:04:36;;;;;;;4.20;3.83;;;;;;;20.93;100.00;97102.72;5054872;28;20654;-68
2021/06/28 11:07:11;;;;;;;4.30;4.00;;;;;;;22.20;100.00;97315.59;5046336;28;20308;-72
2021/06/28 11:09:38;;;;;;;4.00;3.70;;;;;;;22.26;100.00;97320.84;5012363;28;20310;-70
2021/06/28 11:12:22;;;;;;;3.93;3.63;;;;;;;22.10;100.00;97286.34;5028224;28;20279;-70
2021/06/28 11:14:59;;;;;;;3.93;3.63;;;;;;;22.26;100.00;97315.72;5038524;28;20225;-68
2021/06/28 11:17:47;;;;;;;4.03;3.67;;;;;;;22.17;100.00;97301.00;5030802;28;20250;-70
2021/06/28 11:20:38;;;;;;;4.03;3.70;;;;;;;22.26;100.00;97315.72;5029336;28;20251;-68
2021/06/28 11:23:16;;;;;;;4.40;3.63;;;;;;;22.26;100.00;97316.56;5038037;28;20229;-70
2021/06/28 11:25:53;;;;;;;3.90;3.60;;;;;;;22.19;100.00;97301.03;5028022;28;20224;-68
2021/06/28 11:28:27;;;;;;;4.00;3.70;;;;;;;22.26;100.00;97303.78;5031416;28;20217;-68
2021/06/28 11:31:05;;;;;;;4.30;3.83;;;;;;;22.10;100.00;97273.53;5015134;28;20469;-71
2021/06/28 11:33:33;;;;;;;3.73;3.43;;;;;;;21.10;100.00;97100.59;5033073;28;20200;-66
2021/06/28 11:36:01;;;;;;;4.00;3.70;;;;;;;22.17;100.00;97277.13;5049456;28;20252;-71